• Join FlightAware (Why Join?)
  • Login
  • US Flag 
05:16AM EST


 

Airport Tracker/Info


-or-


 

Live Flight TrackerFlight Track Log ✈ PDT4314 ✈ 07-Aug-2014 ✈ KPHL - KBGM

Flight Track Log - Related Links

Times and Time Zones

All times are in EDT time to prevent confusion due to time zone crossing. See the PDT4314 flight status page for this flight to view local times or setup timezone preferences in your user account.

Time Position Orientation Groundspeed Altitude Reporting Facility
EDT Latitude Longitude Course Direction KTS MPH feet Rate Location/Type
06:00PM 39.9000 -75.2333 311° West 110 127 600  Level Philadelphia TRACON
06:01PM 39.9167 -75.3000 288° West 149 171 2,000 1,080 Climbing Philadelphia TRACON
06:02PM 39.9167 -75.3500 270° West 151 174 3,000 960 Climbing Philadelphia TRACON
06:03PM 40.0477 -75.3978 323° Northwest  Level FlightAware Approximate
06:03PM 39.9333 -75.4000 294° West 152 175 4,000  Level Philadelphia TRACON
06:04PM 40.1085 -75.4503 303° West  Level FlightAware Approximate
06:04PM 39.9500 -75.4500 294° West 150 173 5,100  Level Philadelphia TRACON
06:05PM 40.1676 -75.5014 311° West  Level FlightAware Approximate
06:05PM 39.9500 -75.5000 270° West 157 181 6,100  Level Philadelphia TRACON
06:06PM 39.9500 -75.5667 270° West 154 177 7,300 1,080 Climbing Philadelphia TRACON
06:07PM 39.9667 -75.5833 323° Northwest 149 171 8,400 960 Climbing Philadelphia TRACON
06:08PM 40.0000 -75.5833 360° North 162 186 9,200 900 Climbing Philadelphia TRACON
06:10PM 40.0639 -75.5689 10° North 171 197 10,600 840 Climbing New York Center
06:11PM 40.1036 -75.5636 North 171 197 11,400 660 Climbing New York Center
06:11PM 40.1517 -75.5642 359° North 159 183 12,000 300 Climbing New York Center
06:13PM 40.2039 -75.5594 North 176 203 12,000  Level New York Center
06:13PM 40.2506 -75.5900 333° Northwest 184 212 12,000  Level New York Center
06:14PM 40.2836 -75.6494 306° West 189 217 12,000  Level New York Center
06:16PM 40.3211 -75.7011 314° West 212 244 12,000  Level New York Center
06:16PM 40.3781 -75.7350 336° Northwest 206 237 12,000  Level New York Center
06:17PM 40.4308 -75.7689 334° Northwest 206 237 12,000  Level New York Center
06:19PM 40.4878 -75.8003 337° Northwest 212 244 12,000  Level New York Center
06:19PM 40.5367 -75.8258 338° Northwest 212 244 12,000  Level New York Center
06:20PM 40.5917 -75.8572 337° Northwest 212 244 12,000  Level New York Center
06:21PM 40.6525 -75.8944 335° Northwest 212 244 12,000  Level New York Center
06:23PM 40.7075 -75.9231 338° Northwest 212 244 12,000  Level New York Center
06:23PM 40.7583 -75.9517 337° Northwest 212 244 12,100  Climbing New York Center
06:24PM 40.8172 -75.9864 336° Northwest 217 250 12,100  Level New York Center
06:26PM 40.8661 -76.0147 336° Northwest 211 243 12,100  Level New York Center
06:26PM 40.9233 -76.0411 341° North 211 243 12,100  Level New York Center
06:27PM 40.9781 -76.0756 335° Northwest 211 243 12,100  Level New York Center
06:28PM 41.0392 -76.1025 342° North 211 243 12,100 -60 Level New York Center
06:29PM 41.0964 -76.1317 339° North 211 243 12,000 -60 Descending New York Center
06:30PM 41.1508 -76.1664 334° Northwest 211 243 12,000  Level New York Center
06:32PM 41.2019 -76.1897 341° North 211 243 12,000  Level New York Center
06:33PM 41.2617 -76.2056 349° North 211 243 12,000  Level New York Center
06:34PM 41.3286 -76.1997 North 206 237 12,000  Level New York Center
06:34PM 41.3908 -76.2022 358° North 219 252 12,000  Level New York Center
06:36PM 41.4517 -76.1958 North 219 252 12,000  Level New York Center
06:36PM 41.5061 -76.1892 North 219 252 12,000 -120 Level New York Center
06:37PM 41.5669 -76.1803 North 219 252 11,800 -660 Descending New York Center
06:39PM 41.6381 -76.1750 North 226 260 10,700 -960 Descending New York Center
06:40PM 41.7047 -76.1719 North 237 273 9,900 -900 Descending New York Center
06:40PM 41.7736 -76.1664 North 237 273 9,000 -840 Descending New York Center
06:42PM 41.8300 -76.1656 North 226 260 8,300 -1,080 Descending New York Center
06:43PM 41.8861 -76.1644 North 210 242 6,900 -1,500 Descending New York Center
06:43PM 41.9397 -76.1325 24° Northeast 189 217 5,400 -1,440 Descending New York Center
06:45PM 41.9953 -76.0981 25° Northeast 197 227 4,100 -720 Descending New York Center
06:45PM 42.0425 -76.0683 25° Northeast 202 232 4,000 -300 Descending New York Center
06:47PM 42.0817 -76.0294 36° Northeast 197 227 3,600 -180 Descending New York Center
06:48PM 42.1211 -75.9881 38° Northeast 186 214 3,700 -360 Climbing New York Center
06:48PM 42.1517 -75.9514 42° Northeast 166 191 2,900 -840 Descending New York Center
06:49PM 42.1908 -75.9600 351° North 146 168 2,100 -840 Descending New York Center